Time;durP1;ratioP1;P1;durP2;ratioP2;P2;SDS_P1;SDS_P2;PMS_P1;PMS_P2;Temp;Humidity;BMP_temperature;BMP_pressure;BME280_temperature;BME280_humidity;BME280_pressure;Samples;Min_cycle;Max_cycle;Signal;HPM_P1;HPM_P2
2022/11/15 00:02:53;;;;;;;12.65;1.80;;;;;;;2.79;41.97;100276.06;6252827;23;20462;-86
2022/11/15 00:05:37;;;;;;;6.72;1.52;;;;;;;2.89;41.77;100287.09;6244900;23;20415;-84
2022/11/15 00:08:21;;;;;;;3.85;1.75;;;;;;;2.68;40.67;100255.28;6245985;23;20044;-84
2022/11/15 00:11:06;;;;;;;1.85;1.25;;;;;;;2.98;41.31;100277.56;6245691;23;20015;-82
2022/11/15 00:13:50;;;;;;;4.78;1.50;;;;;;;2.71;40.47;100222.41;6244278;23;20028;-90
2022/11/15 00:16:35;;;;;;;2.95;1.30;;;;;;;2.54;40.84;100220.47;6245400;23;20078;-84
2022/11/15 00:19:19;;;;;;;7.63;1.60;;;;;;;2.36;41.18;100217.94;6245720;23;20023;-88
2022/11/15 00:22:04;;;;;;;5.57;1.77;;;;;;;2.70;41.54;100270.19;6222410;23;20114;-88
2022/11/15 00:24:49;;;;;;;4.63;1.52;;;;;;;2.81;40.76;100271.22;6245052;23;20024;-84
2022/11/15 00:27:34;;;;;;;6.00;1.67;;;;;;;2.72;40.85;100230.28;6244201;23;20425;-86
2022/11/15 00:30:19;;;;;;;3.15;1.42;;;;;;;2.90;41.22;100244.69;6246060;23;20019;-85
2022/11/15 00:33:05;;;;;;;6.13;1.48;;;;;;;2.52;40.84;100198.31;6245490;23;20091;-89
2022/11/15 00:35:49;;;;;;;2.15;1.40;;;;;;;2.84;41.62;100224.84;6245143;23;20016;-90
2022/11/15 00:38:35;;;;;;;4.63;1.65;;;;;;;2.83;40.22;100221.34;6243855;23;20027;-84
2022/11/15 00:41:19;;;;;;;4.20;1.70;;;;;;;2.81;41.06;100207.28;6245907;23;20011;-89
2022/11/15 00:44:04;;;;;;;3.42;1.40;;;;;;;2.75;40.75;100183.09;6243642;23;20024;-84
2022/11/15 00:46:48;;;;;;;6.07;1.65;;;;;;;2.98;39.80;100209.19;6245732;23;20015;-86
2022/11/15 00:49:33;;;;;;;3.83;1.90;;;;;;;3.01;41.21;100204.16;6243899;23;20023;-89
2022/11/15 00:52:17;;;;;;;6.28;1.60;;;;;;;3.04;41.24;100214.44;6222502;23;20066;-86
2022/11/15 00:55:02;;;;;;;4.22;1.90;;;;;;;2.89;41.17;100189.03;6243845;23;20500;-87
2022/11/15 00:57:47;;;;;;;3.45;1.50;;;;;;;2.89;41.89;100210.66;6245235;23;20446;-84
2022/11/15 01:06:07;;;;;;;2.45;1.40;;;;;;;3.02;41.21;100204.97;6243816;23;19985;-86
2022/11/15 01:08:52;;;;;;;4.05;1.65;;;;;;;2.95;41.53;100218.59;6244238;23;20016;-87
2022/11/15 01:11:36;;;;;;;4.18;1.50;;;;;;;2.61;41.79;100135.84;6244261;23;20023;-87
2022/11/15 01:14:21;;;;;;;7.63;1.80;;;;;;;3.20;41.61;100222.84;6244009;23;20024;-85
2022/11/15 01:17:05;;;;;;;6.50;2.00;;;;;;;3.08;41.86;100217.50;6248004;23;20012;-83
2022/11/15 01:19:50;;;;;;;4.75;1.77;;;;;;;2.92;41.86;100205.59;6250807;23;20012;-86
2022/11/15 01:22:34;;;;;;;4.28;1.27;;;;;;;2.81;41.51;100203.72;6243979;23;20019;-85
2022/11/15 01:25:19;;;;;;;4.68;1.60;;;;;;;2.63;42.06;100171.53;6245167;23;20027;-83
2022/11/15 01:30:49;;;;;;;3.00;1.40;;;;;;;2.85;42.38;100202.22;6243346;23;20043;-85
2022/11/15 01:33:38;;;;;;;5.72;1.63;;;;;;;2.97;41.71;100213.75;6243809;23;20023;-85
2022/11/15 01:36:23;;;;;;;6.65;2.17;;;;;;;2.44;41.87;100133.06;6245724;23;20047;-86
2022/11/15 01:39:08;;;;;;;7.85;1.60;;;;;;;2.89;42.32;100195.25;6222936;23;20113;-85
2022/11/15 01:41:53;;;;;;;5.70;1.63;;;;;;;2.62;42.17;100178.00;6243923;23;20024;-90
2022/11/15 01:47:33;;;;;;;3.00;1.50;;;;;;;2.72;42.52;100197.09;6245091;22;20020;-85
2022/11/15 01:50:28;;;;;;;4.47;1.55;;;;;;;2.51;42.87;100164.25;6245487;23;20050;-84
2022/11/15 01:53:12;;;;;;;5.57;1.70;;;;;;;2.35;42.69;100148.81;6245044;23;20401;-87
2022/11/15 01:55:58;;;;;;;3.78;1.63;;;;;;;2.45;42.45;100173.34;6243521;23;20070;-85
2022/11/15 01:58:45;;;;;;;2.80;1.65;;;;;;;2.45;42.51;100138.25;6245513;23;20020;-87
2022/11/15 02:07:04;;;;;;;6.40;1.55;;;;;;;2.60;43.64;100199.81;6243701;23;20504;-93
2022/11/15 02:09:49;;;;;;;3.05;1.50;;;;;;;2.10;42.72;100130.22;6243537;23;20020;-85
2022/11/15 02:12:34;;;;;;;3.38;1.42;;;;;;;2.03;43.19;100134.94;6245277;23;20012;-87
2022/11/15 02:18:18;;;;;;;4.15;1.40;;;;;;;2.26;43.42;100198.81;6245334;23;20020;-88
2022/11/15 02:24:12;;;;;;;3.53;1.20;;;;;;;2.30;43.29;100192.69;6244830;23;20020;-85
2022/11/15 02:26:58;;;;;;;;;;;;;;;2.14;43.41;100188.03;6244523;23;20020;-86
2022/11/15 02:33:00;;;;;;;5.10;1.38;;;;;;;2.23;43.35;100177.72;6244988;23;20098;-84
2022/11/15 02:35:50;;;;;;;3.42;1.58;;;;;;;2.23;43.49;100175.81;6249438;23;20019;-83
2022/11/15 02:39:00;;;;;;;3.28;1.50;;;;;;;2.22;44.10;100174.19;6221912;23;20020;-83
2022/11/15 02:43:56;;;;;;;6.15;1.85;;;;;;;1.93;44.36;100140.09;6220921;23;20095;-85
2022/11/15 02:45:21;;;;;;;6.45;1.30;;;;;;;2.09;43.97;100152.88;6243790;23;20051;-84
2022/11/15 02:50:52;;;;;;;5.82;1.50;;;;;;;2.07;44.56;100150.41;6243654;23;20059;-87
2022/11/15 02:53:37;;;;;;;10.85;2.40;;;;;;;2.11;44.47;100131.84;6247489;23;20016;-91
2022/11/15 02:56:21;;;;;;;4.00;1.63;;;;;;;2.27;44.57;100178.88;6245646;23;20354;-85
2022/11/15 02:59:12;;;;;;;7.32;1.75;;;;;;;1.99;44.63;100147.25;6245093;23;20103;-84
2022/11/15 03:02:12;;;;;;;6.95;2.00;;;;;;;2.09;45.34;100172.56;6219927;23;20095;-90
2022/11/15 03:05:04;;;;;;;4.57;1.63;;;;;;;2.13;45.56;100172.91;6219563;23;20020;-84
2022/11/15 03:08:17;;;;;;;5.38;1.73;;;;;;;1.80;45.28;100106.94;6223811;23;20016;-89
2022/11/15 03:11:12;;;;;;;3.03;1.17;;;;;;;2.18;45.55;100161.41;6244642;23;20027;-87
2022/11/15 03:14:39;;;;;;;4.82;1.25;;;;;;;2.14;44.74;100171.84;6224174;23;20047;-91
2022/11/15 03:17:54;;;;;;;6.45;1.58;;;;;;;2.07;45.61;100147.69;6132441;23;20077;-84
2022/11/15 03:20:39;;;;;;;3.72;1.48;;;;;;;1.89;44.38;100110.09;6124873;23;20075;-85
2022/11/15 03:23:26;;;;;;;7.10;1.73;;;;;;;2.22;44.61;100157.16;6153338;23;20020;-83
2022/11/15 03:26:14;;;;;;;5.72;2.20;;;;;;;1.96;45.23;100143.16;6156284;23;20045;-85
2022/11/15 03:34:43;;;;;;;17.27;1.67;;;;;;;2.15;45.50;100145.69;6154077;23;19920;-92
2022/11/15 03:43:19;;;;;;;;;;;;;;;2.30;45.14;100154.13;6154976;23;20017;-84
2022/11/15 03:46:42;;;;;;;6.65;1.73;;;;;;;2.23;44.98;100158.81;6132833;23;19916;-83
2022/11/15 03:49:33;;;;;;;4.35;1.42;;;;;;;1.97;44.52;100131.28;6131795;23;20250;-85
2022/11/15 03:52:20;;;;;;;4.45;1.20;;;;;;;2.00;44.55;100133.53;6192064;23;20328;-84
2022/11/15 03:55:08;;;;;;;7.05;1.98;;;;;;;1.95;44.78;100102.91;6247731;23;20450;-91
2022/11/15 03:57:55;;;;;;;;;;;;;;;2.15;44.60;100154.59;6224578;23;20102;-89
2022/11/15 04:00:39;;;;;;;6.38;1.42;;;;;;;1.87;45.15;100134.59;6214892;23;19977;-86
2022/11/15 04:06:11;;;;;;;5.88;1.40;;;;;;;1.68;45.17;100119.59;6214737;23;20087;-84
2022/11/15 04:08:55;;;;;;;2.00;1.05;;;;;;;1.71;45.19;100121.00;6215911;23;20480;-85
2022/11/15 04:11:40;;;;;;;5.20;1.85;;;;;;;1.62;45.63;100078.25;6215064;23;20023;-84
2022/11/15 04:14:25;;;;;;;10.15;2.70;;;;;;;1.53;44.72;100066.19;6218474;23;20016;-91
2022/11/15 04:17:09;;;;;;;11.23;2.90;;;;;;;2.10;44.95;100149.91;6215477;23;20027;-87
2022/11/15 04:26:05;;;;;;;13.70;2.88;;;;;;;1.71;45.04;100096.75;6214933;23;20090;-83
2022/11/15 04:31:52;;;;;;;5.85;1.80;;;;;;;2.00;44.97;100108.44;6214861;23;20107;-85
2022/11/15 04:34:38;;;;;;;11.98;3.15;;;;;;;2.16;44.96;100144.66;6192888;23;20016;-84
2022/11/15 04:37:25;;;;;;;7.72;2.22;;;;;;;2.09;44.59;100142.91;6193491;23;20013;-86
2022/11/15 04:40:10;;;;;;;11.60;1.90;;;;;;;1.83;45.12;100116.44;6212714;23;20066;-88
2022/11/15 04:42:55;;;;;;;3.80;1.92;;;;;;;1.69;45.45;100079.97;6215437;23;20016;-85
2022/11/15 04:45:40;;;;;;;6.95;1.80;;;;;;;1.91;45.25;100132.22;6212595;23;20055;-85
2022/11/15 04:48:24;;;;;;;11.30;1.70;;;;;;;1.85;45.22;100108.91;6214208;23;20027;-82
2022/11/15 04:51:09;;;;;;;8.60;2.05;;;;;;;1.93;44.93;100094.28;6214512;23;20027;-83
2022/11/15 04:53:53;;;;;;;12.43;1.90;;;;;;;2.15;44.14;100124.94;6214873;23;20016;-82
2022/11/15 04:56:37;;;;;;;5.75;1.73;;;;;;;2.08;44.38;100119.66;6215087;23;20016;-83
2022/11/15 04:59:22;;;;;;;6.85;1.80;;;;;;;1.99;44.83;100098.72;6215663;23;20493;-85
2022/11/15 05:02:07;;;;;;;6.72;1.98;;;;;;;1.94;45.00;100095.91;6244838;23;20020;-85
2022/11/15 05:04:51;;;;;;;13.43;2.50;;;;;;;2.20;44.69;100108.03;6245247;23;20091;-82
2022/11/15 05:07:36;;;;;;;9.52;2.35;;;;;;;1.93;44.26;100062.72;6225475;23;20022;-82
2022/11/15 05:13:08;;;;;;;11.65;3.70;;;;;;;1.88;44.34;100086.88;6218271;23;20023;-89
2022/11/15 05:15:52;;;;;;;18.08;4.20;;;;;;;1.85;44.48;100080.09;6218042;23;20058;-82
2022/11/15 05:18:40;;;;;;;8.77;2.72;;;;;;;1.89;43.95;100075.06;6221930;23;20012;-89
2022/11/15 05:21:25;;;;;;;20.92;2.70;;;;;;;2.09;44.34;100083.56;6244450;23;20065;-84
2022/11/15 05:29:40;;;;;;;8.15;1.90;;;;;;;2.07;44.08;100093.75;6244856;23;20030;-83
2022/11/15 05:32:26;;;;;;;5.72;1.92;;;;;;;1.99;42.99;100066.34;6244437;23;20019;-85
2022/11/15 05:35:20;;;;;;;9.90;2.20;;;;;;;2.23;43.40;100102.19;6245299;23;20030;-84
2022/11/15 05:38:04;;;;;;;6.82;1.98;;;;;;;1.92;43.43;100093.44;6244059;23;20027;-82
2022/11/15 05:40:49;;;;;;;11.43;2.03;;;;;;;2.01;43.80;100110.88;6244068;23;20103;-83
2022/11/15 05:43:37;;;;;;;7.85;1.60;;;;;;;2.15;44.75;100097.13;6245084;23;20027;-87
2022/11/15 05:46:22;;;;;;;3.70;1.48;;;;;;;1.91;43.01;100070.22;6244765;23;20086;-85
2022/11/15 05:49:11;;;;;;;9.57;1.90;;;;;;;1.91;44.15;100047.84;6244690;23;20015;-84
2022/11/15 05:51:57;;;;;;;5.35;1.70;;;;;;;2.06;43.73;100040.88;6217527;23;20027;-83
2022/11/15 05:54:42;;;;;;;4.53;1.80;;;;;;;1.91;42.98;100037.88;6218494;23;20106;-85
2022/11/15 05:57:27;;;;;;;7.30;2.53;;;;;;;1.97;44.26;100057.69;6245279;23;20525;-84
2022/11/15 06:00:14;;;;;;;4.35;1.90;;;;;;;2.10;43.70;100060.91;6243544;23;20020;-83
2022/11/15 06:02:58;;;;;;;13.55;2.13;;;;;;;2.26;43.32;100072.84;6218073;23;20392;-86
2022/11/15 06:05:43;;;;;;;7.90;2.53;;;;;;;2.39;44.18;100087.94;6244529;23;20359;-84
2022/11/15 06:08:27;;;;;;;18.98;2.72;;;;;;;2.20;44.42;100056.78;6245295;23;20112;-88
2022/11/15 06:11:12;;;;;;;12.60;2.55;;;;;;;2.03;44.57;100043.25;6244565;23;20023;-83
2022/11/15 06:13:56;;;;;;;17.00;2.38;;;;;;;1.94;44.13;100018.53;6196297;23;20022;-85
2022/11/15 06:16:41;;;;;;;7.53;2.50;;;;;;;1.96;44.67;100013.72;6217565;23;20019;-84
2022/11/15 06:19:25;;;;;;;6.30;1.88;;;;;;;2.29;43.56;100042.69;6197317;23;20020;-93
2022/11/15 06:22:10;;;;;;;5.68;2.90;;;;;;;2.19;44.18;100017.41;6245320;23;20354;-85
2022/11/15 06:24:54;;;;;;;12.05;2.45;;;;;;;2.29;43.95;100047.28;6257188;23;20020;-84
2022/11/15 06:27:39;;;;;;;6.40;2.10;;;;;;;2.33;44.31;100041.16;6199127;23;20074;-86
2022/11/15 06:33:10;;;;;;;;;;;;;;;2.67;44.00;100070.09;6220149;23;20023;-91
2022/11/15 06:35:55;;;;;;;5.07;2.05;;;;;;;2.70;43.86;100066.91;6219531;23;19998;-85
2022/11/15 06:38:40;;;;;;;12.93;1.80;;;;;;;2.51;42.91;100023.09;6224080;23;20048;-86
2022/11/15 06:41:24;;;;;;;8.77;2.45;;;;;;;2.64;43.62;100038.19;6246000;23;20327;-84
2022/11/15 06:44:09;;;;;;;8.52;2.20;;;;;;;2.58;43.85;100042.66;6219510;23;20028;-86
2022/11/15 06:46:53;;;;;;;7.35;1.88;;;;;;;2.67;44.17;100037.69;6223487;23;20043;-84
2022/11/15 06:49:37;;;;;;;15.50;2.30;;;;;;;2.79;43.12;100060.06;6246260;23;20016;-91
2022/11/15 06:52:22;;;;;;;7.25;2.15;;;;;;;2.95;43.48;100063.84;6197789;23;20034;-89
2022/11/15 06:55:07;;;;;;;7.72;2.35;;;;;;;2.94;43.55;100049.50;6219334;23;20527;-84
2022/11/15 06:57:53;;;;;;;21.73;3.20;;;;;;;2.83;43.60;100013.41;6223743;23;20031;-85
2022/11/15 07:03:25;;;;;;;24.08;3.10;;;;;;;2.83;43.35;100035.03;6246240;23;20027;-84
2022/11/15 07:06:10;;;;;;;15.07;2.70;;;;;;;2.86;44.15;100032.91;6197900;23;20061;-91
2022/11/15 07:08:55;;;;;;;4.55;2.35;;;;;;;2.70;44.15;100029.94;6197581;23;20027;-92
2022/11/15 07:14:27;;;;;;;17.40;3.63;;;;;;;2.82;45.19;100038.78;6248614;23;20016;-84
2022/11/15 07:17:11;;;;;;;9.57;2.80;;;;;;;2.69;44.80;100020.19;6246756;23;20023;-81
2022/11/15 07:19:55;;;;;;;10.63;2.83;;;;;;;2.56;44.80;100010.53;6248686;23;20027;-89
2022/11/15 07:22:40;;;;;;;10.45;2.80;;;;;;;2.57;45.00;100000.53;6220784;23;20016;-85
2022/11/15 07:25:24;;;;;;;13.02;2.72;;;;;;;2.91;44.89;100036.50;6247447;23;20095;-86
2022/11/15 07:28:09;;;;;;;7.68;2.55;;;;;;;2.78;44.59;100005.25;6220756;23;20486;-90
2022/11/15 07:30:54;;;;;;;20.20;3.35;;;;;;;2.68;45.13;100007.78;6225446;23;20022;-88
2022/11/15 07:33:38;;;;;;;10.48;3.00;;;;;;;2.62;44.80;100000.66;6247831;23;20399;-90
2022/11/15 07:36:23;;;;;;;12.75;2.92;;;;;;;2.59;45.22;99998.44;6217796;23;20483;-83
2022/11/15 07:39:07;;;;;;;6.50;2.25;;;;;;;2.54;45.32;99996.44;6245176;23;20105;-82
2022/11/15 07:42:52;;;;;;;11.80;2.90;;;;;;;2.30;44.87;99965.25;6254132;23;20091;-88
2022/11/15 07:44:56;;;;;;;11.90;2.55;;;;;;;2.31;45.07;99950.72;6223216;23;20024;-91
2022/11/15 07:47:44;;;;;;;10.45;2.30;;;;;;;2.44;44.98;99990.88;6249568;23;20016;-89
2022/11/15 07:50:30;;;;;;;11.13;3.22;;;;;;;2.22;44.84;99960.25;6248098;23;20485;-84
2022/11/15 07:53:15;;;;;;;5.65;2.20;;;;;;;2.30;44.93;99970.66;6223929;23;20026;-85
2022/11/15 07:55:59;;;;;;;7.50;2.70;;;;;;;2.71;44.80;100009.16;6246678;23;20023;-91
2022/11/15 07:58:45;;;;;;;14.88;3.05;;;;;;;2.62;44.71;99973.66;6220437;23;20019;-89
2022/11/15 08:01:30;;;;;;;10.60;2.78;;;;;;;2.54;44.49;99945.16;6248081;23;20043;-92
2022/11/15 08:04:16;;;;;;;17.17;3.05;;;;;;;2.69;45.13;99947.31;6226332;23;20020;-91
2022/11/15 08:07:01;;;;;;;10.93;3.50;;;;;;;2.59;44.51;99958.75;6252567;23;20434;-91
2022/11/15 08:09:45;;;;;;;11.00;2.72;;;;;;;2.40;44.53;99943.84;6225635;23;20078;-83
2022/11/15 08:12:36;;;;;;;7.18;3.00;;;;;;;2.52;44.58;99963.50;6247167;23;20110;-92
2022/11/15 08:15:20;;;;;;;8.25;3.15;;;;;;;2.59;44.81;99974.97;6220222;23;20397;-91
2022/11/15 08:18:11;;;;;;;11.02;2.90;;;;;;;2.50;44.92;99944.03;6247861;23;20118;-91
2022/11/15 08:20:59;;;;;;;11.25;3.50;;;;;;;2.83;45.12;99964.00;6220251;23;20035;-91
2022/11/15 08:23:44;;;;;;;17.25;3.85;;;;;;;2.82;43.89;99984.78;6200855;23;20361;-91
2022/11/15 08:26:29;;;;;;;20.52;2.80;;;;;;;2.76;44.96;99952.56;6247259;23;20024;-91
2022/11/15 08:29:14;;;;;;;9.13;2.50;;;;;;;2.64;44.75;99919.41;6245443;23;20023;-90
2022/11/15 08:31:59;;;;;;;9.93;2.70;;;;;;;2.82;44.49;99946.16;6248173;23;20016;-89
2022/11/15 08:34:44;;;;;;;7.78;3.00;;;;;;;3.01;44.92;99952.09;6224256;23;20126;-85
2022/11/15 08:37:29;;;;;;;11.68;2.55;;;;;;;2.86;44.68;99943.78;6219615;23;20099;-86
2022/11/15 08:40:15;;;;;;;9.35;2.78;;;;;;;3.02;45.05;99967.28;6246786;23;20020;-89
2022/11/15 08:43:02;;;;;;;10.75;2.47;;;;;;;3.19;43.50;99948.34;6218099;23;20024;-88
2022/11/15 08:45:46;;;;;;;11.63;2.90;;;;;;;3.05;44.30;99942.47;6198294;23;20016;-83
2022/11/15 08:48:31;;;;;;;4.53;2.10;;;;;;;2.99;43.98;99909.16;6223209;23;20017;-84
2022/11/15 08:51:15;;;;;;;8.00;2.60;;;;;;;3.13;43.66;99914.19;6199026;23;20020;-83
2022/11/15 08:54:00;;;;;;;8.05;2.53;;;;;;;2.98;43.92;99912.09;6221832;23;20023;-91
2022/11/15 08:56:45;;;;;;;9.85;2.10;;;;;;;2.71;44.12;99896.56;6199714;23;20024;-91
2022/11/15 08:59:29;;;;;;;8.43;2.55;;;;;;;2.91;44.02;99914.97;6240928;23;20016;-88
2022/11/15 09:02:16;;;;;;;11.00;2.83;;;;;;;3.14;43.49;99940.16;6251413;23;20015;-84
2022/11/15 09:05:00;;;;;;;12.13;3.10;;;;;;;3.48;43.75;99949.00;6249614;23;20020;-91
2022/11/15 09:07:46;;;;;;;11.10;3.22;;;;;;;3.27;43.92;99918.16;6223512;23;20023;-85
2022/11/15 09:10:30;;;;;;;24.25;3.85;;;;;;;3.26;43.57;99882.22;6246561;23;20012;-91
2022/11/15 09:13:15;;;;;;;14.10;3.40;;;;;;;3.31;44.09;99913.91;6226655;23;20095;-91
2022/11/15 09:16:01;;;;;;;28.60;10.55;;;;;;;3.46;44.25;99941.13;6203363;23;20024;-91
2022/11/15 09:18:47;;;;;;;13.50;3.33;;;;;;;3.40;43.21;99930.50;6226548;23;20023;-85
2022/11/15 09:21:32;;;;;;;14.10;3.35;;;;;;;2.95;44.21;99908.03;6251007;23;20074;-86
2022/11/15 09:24:17;;;;;;;10.60;3.40;;;;;;;3.04;44.48;99905.69;6253662;23;20020;-92
2022/11/15 09:27:02;;;;;;;23.73;4.97;;;;;;;3.31;44.23;99924.69;6222341;23;20012;-92
2022/11/15 09:29:46;;;;;;;11.30;4.47;;;;;;;3.01;43.96;99890.00;6221281;23;20016;-91
2022/11/15 09:32:31;;;;;;;24.55;4.85;;;;;;;3.00;44.32;99867.56;6250693;23;20016;-86
2022/11/15 09:35:17;;;;;;;11.70;3.15;;;;;;;3.19;44.25;99881.59;6221685;23;20024;-85
2022/11/15 09:38:01;;;;;;;12.35;2.53;;;;;;;3.41;44.25;99911.34;6250481;23;20474;-91
2022/11/15 09:40:52;;;;;;;9.07;2.45;;;;;;;3.36;44.39;99897.75;6226363;23;20639;-88
2022/11/15 09:44:05;;;;;;;12.15;3.03;;;;;;;3.37;44.94;99898.56;6248989;23;20114;-84
2022/11/15 09:47:38;;;;;;;5.93;3.08;;;;;;;3.44;45.01;99904.59;6252987;23;20016;-82
2022/11/15 09:50:38;;;;;;;10.63;4.10;;;;;;;3.28;44.98;99860.38;6190662;23;20026;-92
2022/11/15 09:53:04;;;;;;;8.38;3.00;;;;;;;3.15;44.37;99861.56;6225476;23;20020;-87
2022/11/15 09:55:52;;;;;;;6.50;2.97;;;;;;;2.97;44.32;99859.16;6251583;23;20020;-87
2022/11/15 09:58:25;;;;;;;10.57;3.85;;;;;;;3.21;45.38;99894.84;6222126;23;20042;-83
2022/11/15 10:00:54;;;;;;;13.93;4.32;;;;;;;3.23;44.73;99898.94;6235793;23;20473;-86
2022/11/15 10:03:28;;;;;;;20.60;6.90;;;;;;;3.16;45.32;99865.09;6244445;23;20016;-91
2022/11/15 10:06:00;;;;;;;17.17;3.45;;;;;;;3.43;44.70;99887.56;6244292;23;20020;-92
2022/11/15 10:08:44;;;;;;;16.58;3.75;;;;;;;3.45;44.46;99896.25;6248465;23;20020;-86
2022/11/15 10:11:26;;;;;;;15.23;5.30;;;;;;;3.46;45.14;99889.78;6247629;23;20023;-89
2022/11/15 10:13:59;;;;;;;32.50;9.40;;;;;;;3.43;45.03;99875.94;6244802;22;20020;-87
2022/11/15 10:16:28;;;;;;;66.90;25.35;;;;;;;3.51;45.43;99892.56;6249518;23;20358;-82
2022/11/15 10:19:13;;;;;;;62.33;24.17;;;;;;;3.53;44.71;99871.47;6202083;23;20027;-92
2022/11/15 10:21:52;;;;;;;35.80;14.63;;;;;;;3.83;44.45;99880.19;6229974;23;20023;-86
2022/11/15 10:24:23;;;;;;;34.10;7.60;;;;;;;3.71;44.08;99856.81;6255377;23;20618;-91
2022/11/15 10:26:57;;;;;;;11.23;4.25;;;;;;;3.65;44.23;99848.91;6248927;23;20428;-92
2022/11/15 10:29:25;;;;;;;18.70;4.90;;;;;;;3.75;44.24;99873.34;6246474;23;20413;-82
2022/11/15 10:31:52;;;;;;;10.70;4.40;;;;;;;3.33;44.05;99798.28;6249994;23;20362;-82
2022/11/15 10:34:22;;;;;;;24.88;5.80;;;;;;;3.78;44.40;99851.22;6249815;23;20012;-83
2022/11/15 10:37:01;;;;;;;24.75;4.95;;;;;;;3.87;44.25;99841.53;6253208;23;20023;-92
2022/11/15 10:39:28;;;;;;;20.80;6.63;;;;;;;3.64;44.23;99793.19;6225864;23;20027;-94
2022/11/15 10:41:56;;;;;;;23.83;8.83;;;;;;;3.54;43.48;99777.69;6248392;23;20021;-89
2022/11/15 10:44:31;;;;;;;20.33;7.03;;;;;;;3.68;44.19;99830.28;6255202;23;20274;-92
2022/11/15 10:46:57;;;;;;;14.15;5.35;;;;;;;3.74;44.95;99833.84;6247840;23;20348;-91
2022/11/15 10:49:31;;;;;;;11.90;3.40;;;;;;;3.29;44.19;99791.75;6246346;23;20027;-84
2022/11/15 10:52:19;;;;;;;18.95;3.88;;;;;;;3.21;45.10;99825.44;6249231;22;20020;-91
2022/11/15 10:55:06;;;;;;;22.80;4.07;;;;;;;3.26;45.47;99813.88;6219261;23;20023;-89
2022/11/15 10:57:37;;;;;;;24.33;5.05;;;;;;;3.46;45.00;99821.41;6244708;23;20027;-89
2022/11/15 11:00:12;;;;;;;22.92;7.35;;;;;;;3.51;45.06;99802.53;6241825;23;20047;-91
2022/11/15 11:02:56;;;;;;;22.67;6.60;;;;;;;3.71;45.18;99820.84;6218535;23;20023;-90
2022/11/15 11:05:39;;;;;;;22.02;7.53;;;;;;;3.79;44.40;99803.34;6193811;23;20020;-86
2022/11/15 11:08:24;;;;;;;32.03;12.20;;;;;;;3.71;44.66;99802.75;6244823;23;20468;-87
2022/11/15 11:10:55;;;;;;;39.40;9.32;;;;;;;3.86;44.36;99815.56;6218357;23;20016;-89
2022/11/15 11:13:39;;;;;;;20.52;8.50;;;;;;;3.61;44.99;99786.44;6217905;23;20084;-83
2022/11/15 11:16:14;;;;;;;21.35;7.00;;;;;;;3.53;44.67;99801.19;6247574;23;20016;-89
2022/11/15 11:18:55;;;;;;;35.00;12.35;;;;;;;2.97;45.12;99732.22;6219020;23;20016;-84
2022/11/15 11:21:49;;;;;;;39.70;12.52;;;;;;;3.33;45.27;99792.06;6218902;23;20027;-89
2022/11/15 11:24:29;;;;;;;57.05;19.25;;;;;;;3.36;45.19;99789.66;6247420;23;20023;-92
2022/11/15 11:27:21;;;;;;;46.97;14.75;;;;;;;3.59;45.29;99793.16;6220671;23;20012;-91
2022/11/15 11:30:02;;;;;;;34.67;6.18;;;;;;;3.57;45.37;99776.34;6247445;23;20016;-91
2022/11/15 11:32:49;;;;;;;27.02;9.05;;;;;;;3.58;44.89;99797.75;6222447;23;20020;-91
2022/11/15 11:35:15;;;;;;;31.15;7.88;;;;;;;3.76;44.81;99783.84;6250423;23;20833;-89
2022/11/15 11:38:16;;;;;;;15.75;5.00;;;;;;;3.64;44.71;99785.91;6262381;23;20387;-90
2022/11/15 11:40:54;;;;;;;9.32;4.45;;;;;;;3.68;45.03;99789.75;6220353;23;20024;-91
2022/11/15 11:43:59;;;;;;;13.55;3.58;;;;;;;3.79;45.36;99787.13;6229436;23;20048;-89
2022/11/15 11:46:55;;;;;;;19.08;3.35;;;;;;;3.90;45.22;99775.31;6219897;23;20102;-92
2022/11/15 11:49:51;;;;;;;11.65;4.03;;;;;;;3.66;44.58;99740.50;6220902;23;20438;-91
2022/11/15 11:52:22;;;;;;;18.80;5.43;;;;;;;3.70;45.17;99774.06;6169191;23;20457;-87
2022/11/15 11:55:23;;;;;;;11.43;4.38;;;;;;;3.46;45.87;99784.38;6195754;23;20058;-89
2022/11/15 11:58:27;;;;;;;15.73;5.00;;;;;;;3.25;47.56;99777.94;6222971;23;20466;-91
2022/11/15 12:01:10;;;;;;;20.20;5.28;;;;;;;3.23;47.99;99768.44;6238765;23;20020;-91
2022/11/15 12:04:09;;;;;;;18.05;4.00;;;;;;;3.38;49.22;99765.91;6246028;23;20394;-91
2022/11/15 12:06:45;;;;;;;17.00;4.28;;;;;;;2.97;49.42;99724.94;6247274;23;20475;-90
2022/11/15 12:09:31;;;;;;;28.17;6.53;;;;;;;3.32;49.22;99772.34;6248897;23;20039;-89
2022/11/15 12:12:19;;;;;;;32.60;7.57;;;;;;;3.34;49.08;99761.25;6248612;23;20038;-94
2022/11/15 12:14:53;;;;;;;15.45;6.10;;;;;;;3.37;49.24;99763.47;6252214;23;20020;-93
2022/11/15 12:17:26;;;;;;;16.60;8.40;;;;;;;3.13;49.70;99730.53;6251513;23;20023;-93
2022/11/15 12:19:57;;;;;;;12.55;5.93;;;;;;;2.92;49.37;99687.09;6247682;23;20020;-94
2022/11/15 12:22:42;;;;;;;12.38;3.88;;;;;;;2.99;49.83;99728.22;6250859;23;20096;-94
2022/11/15 12:25:32;;;;;;;15.32;4.57;;;;;;;3.06;50.55;99725.31;6226670;23;20020;-93
2022/11/15 12:28:22;;;;;;;16.20;4.00;;;;;;;3.09;49.92;99732.09;6247879;22;20050;-93
2022/11/15 12:30:54;;;;;;;19.10;4.55;;;;;;;2.88;50.33;99717.53;6219519;23;20012;-91
2022/11/15 12:33:41;;;;;;;20.45;4.63;;;;;;;2.98;50.66;99740.09;6248202;23;20043;-94
2022/11/15 12:36:11;;;;;;;13.13;4.10;;;;;;;3.05;51.04;99735.31;6244405;23;20020;-93
2022/11/15 12:39:05;;;;;;;14.52;3.60;;;;;;;3.15;51.25;99737.31;6246942;23;20016;-92
2022/11/15 12:41:33;;;;;;;13.63;3.85;;;;;;;3.27;50.92;99729.03;6245269;23;20104;-82
2022/11/15 12:44:00;;;;;;;11.00;3.55;;;;;;;2.98;50.92;99737.38;6219394;23;20016;-91
2022/11/15 12:46:29;;;;;;;15.20;4.07;;;;;;;2.92;51.75;99727.59;6247018;23;20080;-91
2022/11/15 12:49:01;;;;;;;14.43;3.92;;;;;;;2.67;52.26;99698.41;6248510;23;20016;-90
2022/11/15 12:51:51;;;;;;;12.65;3.40;;;;;;;2.80;52.70;99725.00;6249686;23;20016;-81
2022/11/15 12:54:23;;;;;;;11.93;3.22;;;;;;;2.82;53.60;99727.47;6247651;23;20020;-90
2022/11/15 12:57:08;;;;;;;8.95;2.50;;;;;;;2.77;53.97;99724.69;6260262;23;20016;-92
2022/11/15 12:59:58;;;;;;;14.93;3.88;;;;;;;2.68;54.59;99713.53;6247250;22;20012;-90
2022/11/15 13:02:26;;;;;;;8.98;2.67;;;;;;;2.63;56.21;99709.97;6197478;23;20016;-89
2022/11/15 13:05:20;;;;;;;20.75;3.55;;;;;;;2.38;56.84;99665.38;6247328;23;20505;-84
2022/11/15 13:07:56;;;;;;;7.75;2.90;;;;;;;2.70;56.70;99700.59;6197787;23;20023;-86
2022/11/15 13:10:26;;;;;;;8.93;3.17;;;;;;;2.58;57.70;99708.84;6248107;23;20020;-88
2022/11/15 13:12:59;;;;;;;12.63;4.53;;;;;;;2.33;57.68;99695.81;6219326;23;20024;-90
2022/11/15 13:16:01;;;;;;;12.52;3.85;;;;;;;2.27;58.78;99702.19;6222111;23;20016;-86
2022/11/15 13:18:35;;;;;;;14.20;3.38;;;;;;;1.88;59.24;99631.28;6221565;23;20026;-84
2022/11/15 13:22:50;;;;;;;13.63;4.18;;;;;;;2.27;59.38;99696.00;6219447;23;20016;-86
2022/11/15 13:23:51;;;;;;;;;;;;;;;2.39;59.50;99693.19;6224738;23;20036;-91
2022/11/15 13:26:17;;;;;;;17.98;5.78;;;;;;;2.29;60.01;99651.53;6219046;23;19938;-84
2022/11/15 13:28:54;;;;;;;12.55;4.82;;;;;;;2.34;59.62;99639.97;6222275;23;20094;-84
2022/11/15 13:31:41;;;;;;;14.82;4.53;;;;;;;2.69;59.62;99688.19;6171208;23;20027;-86
2022/11/15 13:34:30;;;;;;;26.08;6.65;;;;;;;2.70;59.86;99664.69;6245207;23;20047;-82
2022/11/15 13:36:57;;;;;;;28.20;7.38;;;;;;;2.65;59.80;99649.28;6221937;23;20275;-83
2022/11/15 13:39:32;;;;;;;17.52;6.57;;;;;;;2.67;59.36;99649.00;6221273;23;20015;-91
2022/11/15 13:41:58;;;;;;;21.95;7.45;;;;;;;2.72;59.30;99646.38;6196529;23;20019;-88
2022/11/15 13:44:31;;;;;;;22.33;6.13;;;;;;;2.77;59.45;99659.91;6170362;23;20043;-86
2022/11/15 13:47:19;;;;;;;16.92;5.90;;;;;;;2.88;59.82;99664.38;6219996;23;20041;-83
2022/11/15 13:49:45;;;;;;;18.95;5.30;;;;;;;2.81;59.45;99658.31;6246477;23;20048;-87
2022/11/15 13:52:16;;;;;;;15.57;4.97;;;;;;;2.80;59.85;99660.22;6248182;23;20070;-86
2022/11/15 13:55:08;;;;;;;18.42;4.80;;;;;;;2.76;60.09;99659.09;6222926;23;20023;-83
2022/11/15 13:57:51;;;;;;;12.75;3.88;;;;;;;2.61;61.26;99641.91;6197629;23;20035;-84
2022/11/15 14:00:43;;;;;;;14.27;3.72;;;;;;;2.77;60.84;99660.72;6251157;23;20039;-83
2022/11/15 14:03:24;;;;;;;14.95;3.50;;;;;;;2.81;60.26;99663.72;6250512;23;20043;-86
2022/11/15 14:06:15;;;;;;;9.63;3.38;;;;;;;2.75;60.48;99654.78;6250366;23;20150;-92